createdAt,value
2022-12-08T00:01:53.727Z,7.57
2022-12-08T00:04:21.128Z,9.00
2022-12-08T00:07:07.369Z,10.10
2022-12-08T00:09:39.208Z,7.93
2022-12-08T00:12:11.037Z,8.50
2022-12-08T00:14:39.703Z,8.38
2022-12-08T00:17:07.572Z,8.90
2022-12-08T00:19:34.934Z,8.73
2022-12-08T00:22:03.217Z,8.90
2022-12-08T00:24:31.734Z,9.02
2022-12-08T00:26:58.976Z,8.45
2022-12-08T00:29:26.391Z,9.05
2022-12-08T00:31:54.051Z,9.23
2022-12-08T00:34:22.239Z,8.52
2022-12-08T00:36:49.516Z,9.05
2022-12-08T00:39:17.417Z,9.40
2022-12-08T00:42:03.232Z,9.25
2022-12-08T00:44:30.545Z,8.65
2022-12-08T00:46:57.837Z,9.63
2022-12-08T00:49:25.239Z,8.93
2022-12-08T00:51:52.557Z,8.95
2022-12-08T00:54:19.991Z,9.85
2022-12-08T00:56:47.509Z,9.63
2022-12-08T00:59:14.928Z,9.32
2022-12-08T01:01:44.132Z,8.70
2022-12-08T01:04:13.275Z,9.65
2022-12-08T01:06:40.546Z,9.13
2022-12-08T01:09:08.624Z,8.85
2022-12-08T01:11:44.543Z,9.07
2022-12-08T01:14:38.401Z,7.78
2022-12-08T01:17:05.829Z,7.53
2022-12-08T01:19:33.161Z,7.47
2022-12-08T01:22:02.931Z,8.77
2022-12-08T01:24:30.260Z,11.75
2022-12-08T01:27:00.758Z,8.90
2022-12-08T01:29:28.353Z,7.68
2022-12-08T01:31:55.649Z,6.07
2022-12-08T01:34:23.826Z,8.48
2022-12-08T01:36:51.179Z,6.53
2022-12-08T01:39:19.174Z,8.35
2022-12-08T01:41:47.595Z,8.15
2022-12-08T01:44:14.897Z,8.48
2022-12-08T01:46:43.537Z,7.65
2022-12-08T01:49:13.927Z,8.18
2022-12-08T01:51:51.852Z,8.00
2022-12-08T01:54:20.282Z,7.55
2022-12-08T01:56:52.255Z,8.35
2022-12-08T02:01:51.694Z,7.90
2022-12-08T02:04:19.110Z,9.18
2022-12-08T02:06:47.730Z,8.98
2022-12-08T02:09:15.215Z,9.38
2022-12-08T02:11:42.520Z,9.57
2022-12-08T02:17:11.302Z,8.35
2022-12-08T02:19:41.681Z,8.30
2022-12-08T02:22:28.921Z,8.15
2022-12-08T02:25:01.267Z,19.75
2022-12-08T02:27:40.893Z,8.48
2022-12-08T02:30:25.293Z,9.02
2022-12-08T02:32:58.704Z,8.43
2022-12-08T02:35:45.093Z,8.35
2022-12-08T02:38:21.249Z,8.32
2022-12-08T02:41:01.244Z,11.32
2022-12-08T02:43:30.384Z,8.13
2022-12-08T02:46:02.967Z,8.13
2022-12-08T02:48:30.509Z,7.85
2022-12-08T02:50:57.754Z,8.65
2022-12-08T02:53:25.098Z,7.93
2022-12-08T02:55:55.078Z,8.23
2022-12-08T02:58:36.162Z,9.23
2022-12-08T03:01:29.803Z,8.57
2022-12-08T03:03:57.067Z,7.68
2022-12-08T03:06:43.389Z,7.95
2022-12-08T03:09:19.806Z,8.73
2022-12-08T03:11:48.933Z,8.30
2022-12-08T03:14:17.879Z,8.23
2022-12-08T03:16:47.165Z,7.10
2022-12-08T03:19:17.926Z,7.35
2022-12-08T03:21:46.476Z,8.57
2022-12-08T03:24:14.000Z,8.18
2022-12-08T03:26:47.232Z,7.53
2022-12-08T03:29:14.634Z,8.20
2022-12-08T03:31:47.482Z,9.40
2022-12-08T03:34:15.227Z,8.05
2022-12-08T03:36:43.943Z,7.47
2022-12-08T03:39:11.363Z,9.70
2022-12-08T03:41:38.641Z,9.20
2022-12-08T03:44:06.032Z,9.93
2022-12-08T03:46:33.348Z,11.35
2022-12-08T03:49:00.712Z,10.45
2022-12-08T03:51:27.942Z,10.90
2022-12-08T03:53:55.340Z,9.35
2022-12-08T03:56:29.872Z,9.55
2022-12-08T03:58:57.523Z,9.10
2022-12-08T04:01:25.081Z,9.10
2022-12-08T04:03:52.461Z,9.57
2022-12-08T04:06:20.145Z,8.80
2022-12-08T04:08:47.773Z,10.38
2022-12-08T04:11:15.038Z,10.73
2022-12-08T04:13:42.972Z,9.85
2022-12-08T04:16:15.208Z,10.55
2022-12-08T04:18:42.652Z,9.25
2022-12-08T04:21:09.912Z,9.15
2022-12-08T04:23:37.209Z,8.90
2022-12-08T04:26:04.741Z,8.75
2022-12-08T04:28:32.119Z,7.97
2022-12-08T04:30:59.444Z,8.63
2022-12-08T04:33:26.772Z,8.98
2022-12-08T04:35:54.001Z,8.02
2022-12-08T04:38:21.398Z,8.77
2022-12-08T04:40:48.818Z,9.07
2022-12-08T04:43:16.090Z,9.73
2022-12-08T04:45:43.644Z,8.57
2022-12-08T04:48:13.192Z,8.35
2022-12-08T04:50:41.845Z,8.93
2022-12-08T04:53:09.691Z,9.52
2022-12-08T04:55:41.238Z,8.80
2022-12-08T04:58:08.623Z,9.45
2022-12-08T05:00:35.903Z,9.75
2022-12-08T05:03:03.340Z,7.95
2022-12-08T05:05:30.631Z,8.70
2022-12-08T05:07:57.993Z,8.98
2022-12-08T05:10:25.370Z,8.77
2022-12-08T05:12:52.688Z,8.50
2022-12-08T05:15:19.957Z,9.35
2022-12-08T05:17:47.285Z,8.07
2022-12-08T05:20:14.720Z,8.82
2022-12-08T05:22:42.009Z,8.75
2022-12-08T05:25:09.671Z,10.00
2022-12-08T05:27:37.157Z,9.43
2022-12-08T05:30:05.305Z,10.00
2022-12-08T05:32:32.865Z,10.15
2022-12-08T05:35:00.128Z,10.25
2022-12-08T05:37:27.461Z,11.50
2022-12-08T05:39:54.889Z,11.10
2022-12-08T05:42:24.917Z,10.32
2022-12-08T05:44:52.722Z,8.10
2022-12-08T05:47:20.123Z,10.85
2022-12-08T05:49:47.456Z,9.25
2022-12-08T05:52:16.799Z,8.95
2022-12-08T05:54:44.346Z,8.93
2022-12-08T05:57:11.603Z,9.98
2022-12-08T05:59:39.640Z,9.55
2022-12-08T06:02:07.044Z,8.98
2022-12-08T06:04:34.397Z,10.45
2022-12-08T06:07:01.642Z,10.02
2022-12-08T06:09:29.029Z,9.98
2022-12-08T06:11:56.375Z,10.00
2022-12-08T06:14:23.840Z,7.47
2022-12-08T06:16:51.236Z,10.25
2022-12-08T06:19:18.637Z,10.80
2022-12-08T06:21:45.918Z,10.38
2022-12-08T06:24:13.278Z,8.93
2022-12-08T06:26:41.410Z,9.50
2022-12-08T06:29:08.772Z,9.68
2022-12-08T06:31:36.156Z,10.75
2022-12-08T06:34:03.559Z,9.95
2022-12-08T06:36:30.992Z,10.70
2022-12-08T06:38:58.532Z,10.18
2022-12-08T06:41:26.389Z,9.60
2022-12-08T06:43:56.412Z,11.18
2022-12-08T06:46:25.598Z,9.45
2022-12-08T06:48:53.031Z,10.10
2022-12-08T06:51:23.356Z,10.48
2022-12-08T06:53:50.735Z,11.32
2022-12-08T06:56:19.983Z,10.48
2022-12-08T06:58:52.364Z,10.57
2022-12-08T07:01:20.408Z,11.20
2022-12-08T07:03:47.938Z,9.88
2022-12-08T07:06:17.223Z,12.18
2022-12-08T07:08:44.601Z,10.18
2022-12-08T07:11:15.252Z,10.27
2022-12-08T07:13:45.729Z,9.52
2022-12-08T07:16:13.633Z,9.85
2022-12-08T07:18:42.876Z,11.02
2022-12-08T07:21:11.720Z,11.18
2022-12-08T07:23:38.980Z,11.50
2022-12-08T07:26:07.739Z,11.77
2022-12-08T07:28:35.744Z,12.57
2022-12-08T07:31:04.599Z,11.95
2022-12-08T07:33:32.236Z,12.35
2022-12-08T07:36:00.675Z,9.98
2022-12-08T07:38:28.418Z,9.38
2022-12-08T07:40:55.884Z,10.18
2022-12-08T07:43:23.724Z,10.07
2022-12-08T07:45:51.481Z,9.77
2022-12-08T07:48:18.916Z,10.30
2022-12-08T07:50:46.330Z,10.18
2022-12-08T07:53:13.631Z,12.73
2022-12-08T07:55:44.413Z,11.85
2022-12-08T07:58:12.188Z,12.30
2022-12-08T08:00:39.518Z,11.82
2022-12-08T08:03:08.863Z,11.88
2022-12-08T08:05:36.472Z,11.90
2022-12-08T08:08:03.879Z,11.80
2022-12-08T08:10:31.346Z,11.27
2022-12-08T08:13:01.756Z,11.80
2022-12-08T08:15:30.748Z,12.82
2022-12-08T08:17:58.055Z,11.32
2022-12-08T08:20:25.462Z,11.50
2022-12-08T08:22:52.779Z,12.57
2022-12-08T08:25:27.628Z,11.63
2022-12-08T08:27:58.175Z,11.27
2022-12-08T08:30:25.488Z,11.68
2022-12-08T08:32:52.829Z,10.73
2022-12-08T08:35:20.172Z,16.83
2022-12-08T08:37:49.450Z,16.08
2022-12-08T08:40:18.264Z,17.67
2022-12-08T08:42:45.577Z,13.13
2022-12-08T08:45:13.781Z,12.45
2022-12-08T08:47:41.034Z,11.73
2022-12-08T08:50:08.901Z,12.38
2022-12-08T08:52:36.440Z,13.63
2022-12-08T08:55:05.109Z,11.77
2022-12-08T08:57:32.661Z,10.82
2022-12-08T08:59:59.913Z,12.50
2022-12-08T09:02:27.322Z,11.90
2022-12-08T09:04:56.025Z,12.73
2022-12-08T09:07:23.409Z,12.40
2022-12-08T09:09:50.814Z,12.65
2022-12-08T09:12:18.087Z,13.05
2022-12-08T09:14:46.035Z,13.00
2022-12-08T09:17:13.289Z,11.77
2022-12-08T09:19:40.531Z,12.65
2022-12-08T09:22:07.765Z,13.20
2022-12-08T09:27:31.469Z,11.73
2022-12-08T09:29:58.902Z,12.63
2022-12-08T09:32:26.184Z,19.48
2022-12-08T09:34:55.098Z,13.57
2022-12-08T09:37:22.554Z,12.55
2022-12-08T09:39:50.159Z,12.13
2022-12-08T09:42:23.482Z,13.43
2022-12-08T09:44:57.352Z,11.60
2022-12-08T09:47:32.071Z,12.02
2022-12-08T09:50:01.185Z,11.55
2022-12-08T09:52:30.945Z,12.48
2022-12-08T09:54:59.837Z,18.30
2022-12-08T09:57:27.169Z,13.18
2022-12-08T09:59:59.035Z,11.30
2022-12-08T10:02:29.426Z,12.95
2022-12-08T10:04:58.059Z,12.77
2022-12-08T10:07:45.183Z,11.60
2022-12-08T10:10:25.312Z,13.20
2022-12-08T10:12:55.730Z,12.88
2022-12-08T10:17:52.801Z,11.60
2022-12-08T10:20:21.965Z,10.95
2022-12-08T10:22:51.720Z,11.65
2022-12-08T10:25:33.893Z,12.55
2022-12-08T10:28:02.749Z,10.90
2022-12-08T10:30:32.418Z,13.35
2022-12-08T10:33:00.400Z,12.88
2022-12-08T10:35:42.661Z,12.77
2022-12-08T10:38:16.931Z,12.55
2022-12-08T10:40:47.008Z,11.70
2022-12-08T10:43:15.868Z,12.90
2022-12-08T10:45:43.976Z,12.07
2022-12-08T10:48:15.621Z,13.77
2022-12-08T10:50:44.555Z,11.82
2022-12-08T10:53:13.835Z,12.10
2022-12-08T10:55:41.223Z,13.32
2022-12-08T10:58:27.332Z,12.32
2022-12-08T11:00:56.382Z,11.25
2022-12-08T11:03:27.373Z,11.77
2022-12-08T11:05:57.347Z,12.15
2022-12-08T11:08:24.938Z,11.07
2022-12-08T11:10:52.240Z,11.40
2022-12-08T11:13:29.930Z,11.70
2022-12-08T11:15:57.632Z,12.35
2022-12-08T11:18:47.940Z,12.95
2022-12-08T11:21:16.715Z,12.90
2022-12-08T11:23:47.604Z,12.35
2022-12-08T11:26:21.319Z,13.00
2022-12-08T11:28:48.622Z,12.00
2022-12-08T11:31:26.308Z,12.20
2022-12-08T11:33:54.275Z,14.35
2022-12-08T11:36:22.956Z,18.80
2022-12-08T11:38:52.232Z,14.32
2022-12-08T11:41:20.725Z,13.30
2022-12-08T11:43:47.974Z,13.05
2022-12-08T11:46:21.640Z,13.30
2022-12-08T11:48:52.440Z,12.93
2022-12-08T11:51:19.771Z,12.93
2022-12-08T11:53:50.351Z,12.52
2022-12-08T11:56:20.748Z,13.27
2022-12-08T11:58:51.540Z,12.80
2022-12-08T12:01:23.844Z,12.50
2022-12-08T12:04:10.173Z,12.52
2022-12-08T12:06:57.053Z,12.82
2022-12-08T12:09:41.347Z,13.10
2022-12-08T12:12:15.875Z,12.15
2022-12-08T12:14:52.169Z,13.40
2022-12-08T12:17:28.765Z,12.65
2022-12-08T12:19:57.741Z,12.63
2022-12-08T12:22:25.419Z,11.32
2022-12-08T12:24:53.181Z,12.75
2022-12-08T12:27:25.781Z,13.20
2022-12-08T12:29:58.937Z,12.50
2022-12-08T12:32:28.253Z,13.20
2022-12-08T12:35:01.277Z,11.95
2022-12-08T12:37:37.214Z,12.75
2022-12-08T12:40:07.607Z,18.27
2022-12-08T12:42:38.281Z,10.77
2022-12-08T12:45:11.594Z,14.15
2022-12-08T12:47:56.184Z,13.77
2022-12-08T12:50:43.434Z,15.10
2022-12-08T12:53:16.799Z,13.90
2022-12-08T12:55:47.198Z,13.23
2022-12-08T12:58:20.594Z,13.68
2022-12-08T13:00:48.108Z,14.52
2022-12-08T13:03:17.047Z,16.50
2022-12-08T13:05:54.103Z,13.60
2022-12-08T13:08:23.450Z,13.20
2022-12-08T13:10:58.838Z,14.60
2022-12-08T13:13:26.129Z,13.30
2022-12-08T13:15:54.597Z,13.27
2022-12-08T13:18:26.514Z,13.82
2022-12-08T13:23:43.812Z,12.52
2022-12-08T13:26:24.705Z,13.25
2022-12-08T13:29:03.968Z,12.52
2022-12-08T13:31:51.507Z,13.45
2022-12-08T13:34:25.346Z,13.77
2022-12-08T13:37:00.805Z,13.48
2022-12-08T13:39:35.919Z,12.05
2022-12-08T13:42:07.016Z,13.00
2022-12-08T13:47:35.257Z,13.38
2022-12-08T13:58:40.738Z,13.02
2022-12-08T14:01:20.124Z,12.90
2022-12-08T14:04:04.753Z,12.27
2022-12-08T14:06:39.814Z,11.80
2022-12-08T14:09:11.508Z,11.55
2022-12-08T14:11:40.399Z,11.90
2022-12-08T14:14:09.692Z,13.60
2022-12-08T14:16:42.182Z,13.50
2022-12-08T14:19:17.424Z,13.68
2022-12-08T14:21:51.048Z,13.05
2022-12-08T14:24:18.564Z,13.10
2022-12-08T14:26:47.363Z,13.20
2022-12-08T14:29:24.896Z,14.18
2022-12-08T14:31:53.752Z,13.05
2022-12-08T14:34:21.103Z,12.05
2022-12-08T14:36:48.562Z,13.65
2022-12-08T14:39:16.008Z,13.68
2022-12-08T14:41:58.937Z,15.73
2022-12-08T14:44:26.497Z,13.30
2022-12-08T14:47:05.901Z,15.68
2022-12-08T14:49:34.735Z,13.82
2022-12-08T14:52:02.819Z,14.05
2022-12-08T14:54:31.807Z,14.18
2022-12-08T14:57:01.802Z,13.50
2022-12-08T14:59:30.469Z,13.02
2022-12-08T15:02:22.808Z,13.07
2022-12-08T15:04:55.606Z,22.30
2022-12-08T15:07:28.917Z,15.18
2022-12-08T15:10:21.374Z,13.07
2022-12-08T15:15:17.657Z,12.73
2022-12-08T15:17:47.044Z,22.88
2022-12-08T15:20:35.598Z,14.23
2022-12-08T15:23:03.862Z,13.77
2022-12-08T15:25:31.294Z,14.40
2022-12-08T15:27:58.699Z,14.02
2022-12-08T15:30:29.870Z,20.60
2022-12-08T15:32:57.233Z,22.00
2022-12-08T15:35:25.083Z,22.50
2022-12-08T15:37:52.585Z,22.38
2022-12-08T15:40:21.278Z,23.73
2022-12-08T15:42:50.079Z,22.10
2022-12-08T15:45:18.430Z,23.17
2022-12-08T15:47:46.283Z,21.23
2022-12-08T15:50:17.953Z,19.35
2022-12-08T15:52:45.397Z,18.40
2022-12-08T15:55:16.753Z,15.75
2022-12-08T15:58:31.271Z,15.25
2022-12-08T16:04:13.758Z,13.82
2022-12-08T16:09:12.384Z,17.45
2022-12-08T16:12:08.987Z,16.88
2022-12-08T16:17:25.329Z,13.73
2022-12-08T16:19:52.880Z,13.40
2022-12-08T16:25:18.261Z,16.17
2022-12-08T16:30:35.150Z,16.02
2022-12-08T16:33:02.558Z,14.18
2022-12-08T16:35:30.638Z,15.52
2022-12-08T16:37:58.081Z,13.45
2022-12-08T16:40:25.606Z,15.98
2022-12-08T16:42:53.019Z,14.88
2022-12-08T16:45:21.986Z,14.93
2022-12-08T16:47:50.801Z,14.10
2022-12-08T16:50:31.769Z,15.10
2022-12-08T16:53:00.435Z,13.63
2022-12-08T16:55:28.001Z,11.07
2022-12-08T16:57:58.655Z,14.35
2022-12-08T17:00:26.895Z,12.48
2022-12-08T17:02:54.767Z,11.85
2022-12-08T17:05:23.598Z,12.68
2022-12-08T17:07:51.938Z,13.73
2022-12-08T17:10:20.798Z,14.43
2022-12-08T17:12:48.186Z,15.38
2022-12-08T17:15:17.331Z,12.73
2022-12-08T17:17:44.701Z,12.48
2022-12-08T17:20:22.438Z,13.10
2022-12-08T17:22:50.276Z,15.52
2022-12-08T17:25:27.335Z,13.50
2022-12-08T17:27:56.337Z,14.13
2022-12-08T17:30:23.878Z,14.07
2022-12-08T17:32:52.797Z,13.43
2022-12-08T17:35:20.299Z,15.57
2022-12-08T17:37:47.965Z,16.98
2022-12-08T17:40:15.357Z,18.08
2022-12-08T17:42:42.803Z,16.25
2022-12-08T17:45:10.439Z,15.63
2022-12-08T17:47:38.022Z,14.50
2022-12-08T17:50:07.217Z,13.15
2022-12-08T17:52:35.066Z,11.15
2022-12-08T17:55:03.060Z,13.15
2022-12-08T17:57:31.058Z,15.05
2022-12-08T17:59:58.388Z,13.68
2022-12-08T18:02:25.815Z,13.93
2022-12-08T18:04:53.167Z,15.15
2022-12-08T18:07:20.475Z,14.32
2022-12-08T18:09:47.858Z,15.02
2022-12-08T18:12:19.250Z,13.55
2022-12-08T18:14:50.036Z,15.57
2022-12-08T18:17:17.410Z,15.88
2022-12-08T18:19:44.746Z,18.25
2022-12-08T18:22:12.402Z,17.15
2022-12-08T18:24:39.680Z,19.60
2022-12-08T18:27:06.943Z,22.90
2022-12-08T18:29:34.536Z,20.08
2022-12-08T18:32:01.803Z,18.83
2022-12-08T18:34:29.069Z,16.65
2022-12-08T18:36:56.387Z,12.43
2022-12-08T18:39:25.303Z,15.93
2022-12-08T18:41:56.964Z,15.85
2022-12-08T18:44:24.567Z,16.30
2022-12-08T18:46:51.983Z,17.67
2022-12-08T18:49:21.760Z,16.95
2022-12-08T18:51:49.097Z,17.15
2022-12-08T18:54:16.384Z,14.45
2022-12-08T18:56:46.458Z,15.15
2022-12-08T18:59:14.107Z,20.60
2022-12-08T19:01:41.728Z,20.45
2022-12-08T19:04:27.768Z,15.27
2022-12-08T19:06:55.520Z,18.73
2022-12-08T19:09:22.997Z,16.00
2022-12-08T19:11:51.964Z,13.82
2022-12-08T19:14:25.741Z,13.10
2022-12-08T19:16:55.141Z,13.45
2022-12-08T19:19:22.626Z,16.10
2022-12-08T19:21:50.118Z,14.23
2022-12-08T19:24:17.437Z,14.50
2022-12-08T19:26:44.718Z,13.07
2022-12-08T19:29:12.157Z,12.32
2022-12-08T19:31:39.763Z,12.65
2022-12-08T19:34:08.573Z,13.73
2022-12-08T19:36:42.030Z,14.18
2022-12-08T19:39:30.790Z,14.80
2022-12-08T19:42:16.855Z,14.65
2022-12-08T19:44:53.135Z,14.55
2022-12-08T19:47:21.912Z,17.75
2022-12-08T19:49:49.256Z,17.75
2022-12-08T19:52:17.129Z,18.20
2022-12-08T19:54:44.859Z,18.00
2022-12-08T19:57:12.265Z,15.98
2022-12-08T19:59:40.154Z,15.20
2022-12-08T20:02:08.060Z,13.88
2022-12-08T20:04:35.511Z,12.65
2022-12-08T20:07:02.856Z,11.82
2022-12-08T20:09:30.191Z,12.00
2022-12-08T20:11:57.528Z,12.88
2022-12-08T20:14:25.302Z,12.05
2022-12-08T20:16:52.790Z,13.05
2022-12-08T20:19:20.114Z,14.63
2022-12-08T20:21:47.478Z,13.60
2022-12-08T20:24:14.831Z,12.90
2022-12-08T20:26:42.096Z,12.70
2022-12-08T20:29:09.798Z,14.63
2022-12-08T20:31:37.392Z,14.38
2022-12-08T20:34:04.705Z,12.32
2022-12-08T20:36:32.040Z,13.13
2022-12-08T20:38:59.312Z,12.15
2022-12-08T20:41:26.674Z,11.10
2022-12-08T20:43:54.059Z,11.18
2022-12-08T20:46:22.030Z,12.75
2022-12-08T20:48:49.447Z,11.20
2022-12-08T20:51:18.091Z,11.27
2022-12-08T20:53:45.817Z,11.60
2022-12-08T20:56:24.823Z,11.40
2022-12-08T20:58:59.542Z,12.65
2022-12-08T21:01:28.173Z,13.15
2022-12-08T21:03:56.583Z,14.05
2022-12-08T21:06:29.121Z,12.85
2022-12-08T21:08:59.552Z,10.13
2022-12-08T21:11:36.258Z,9.38
2022-12-08T21:14:03.583Z,10.60
2022-12-08T21:16:31.416Z,9.35
2022-12-08T21:18:59.530Z,10.43
2022-12-08T21:21:28.279Z,10.10
2022-12-08T21:23:55.885Z,10.35
2022-12-08T21:26:26.001Z,15.85
2022-12-08T21:28:57.890Z,18.23
2022-12-08T21:31:26.986Z,16.77
2022-12-08T21:33:55.229Z,14.05
2022-12-08T21:36:22.962Z,15.80
2022-12-08T21:38:50.987Z,12.40
2022-12-08T21:41:41.276Z,13.95
2022-12-08T21:44:10.316Z,13.38
2022-12-08T21:46:38.104Z,14.20
2022-12-08T21:49:06.040Z,11.10
2022-12-08T21:51:35.085Z,14.98
2022-12-08T21:54:02.383Z,12.45
2022-12-08T21:56:30.069Z,17.98
2022-12-08T21:58:57.428Z,14.90
2022-12-08T22:01:24.848Z,15.00
2022-12-08T22:03:52.314Z,13.75
2022-12-08T22:06:19.758Z,14.25
2022-12-08T22:08:47.401Z,14.23
2022-12-08T22:11:15.192Z,13.20
2022-12-08T22:13:43.132Z,11.70
2022-12-08T22:16:12.587Z,10.45
2022-12-08T22:18:40.172Z,12.57
2022-12-08T22:21:11.316Z,12.02
2022-12-08T22:23:39.218Z,11.30
2022-12-08T22:26:07.080Z,9.52
2022-12-08T22:28:39.366Z,10.73
2022-12-08T22:31:09.971Z,10.50
2022-12-08T22:33:37.617Z,14.85
2022-12-08T22:36:10.709Z,12.35
2022-12-08T22:38:38.792Z,14.07
2022-12-08T22:41:06.527Z,15.55
2022-12-08T22:43:34.658Z,13.05
2022-12-08T22:46:02.285Z,13.80
2022-12-08T22:48:31.005Z,12.02
2022-12-08T22:51:02.018Z,14.85
2022-12-08T22:53:29.438Z,12.40
2022-12-08T22:55:56.734Z,10.82
2022-12-08T22:58:24.321Z,10.50
2022-12-08T23:00:52.028Z,11.48
2022-12-08T23:03:19.575Z,10.25
2022-12-08T23:05:47.542Z,9.95
2022-12-08T23:08:17.649Z,11.65
2022-12-08T23:10:46.834Z,10.23
2022-12-08T23:13:14.776Z,10.23
2022-12-08T23:15:42.099Z,11.10
2022-12-08T23:18:11.999Z,10.45
2022-12-08T23:20:39.943Z,10.75
2022-12-08T23:23:07.215Z,10.90
2022-12-08T23:25:34.596Z,9.25
2022-12-08T23:28:01.950Z,11.00
2022-12-08T23:30:29.371Z,9.95
2022-12-08T23:32:56.789Z,9.38
2022-12-08T23:35:24.482Z,10.40
2022-12-08T23:37:53.404Z,10.40
2022-12-08T23:40:20.754Z,10.70
2022-12-08T23:42:48.443Z,10.68
2022-12-08T23:45:15.983Z,10.43
2022-12-08T23:47:43.377Z,9.73
2022-12-08T23:50:11.525Z,10.52
2022-12-08T23:52:39.969Z,10.10
2022-12-08T23:55:07.963Z,11.30
2022-12-08T23:57:38.740Z,9.13
